createdAt,value
2023-03-04T00:02:14.377Z,40.73
2023-03-04T00:04:41.200Z,39.87
2023-03-04T00:07:07.880Z,35.53
2023-03-04T00:09:34.568Z,41.53
2023-03-04T00:12:01.262Z,37.23
2023-03-04T00:14:30.360Z,40.83
2023-03-04T00:16:57.197Z,42.00
2023-03-04T00:19:24.021Z,43.80
2023-03-04T00:21:50.675Z,39.17
2023-03-04T00:24:18.382Z,38.27
2023-03-04T00:26:46.383Z,37.57
2023-03-04T00:29:13.121Z,40.03
2023-03-04T00:31:39.815Z,42.97
2023-03-04T00:34:07.866Z,45.37
2023-03-04T00:36:34.552Z,41.60
2023-03-04T00:39:01.262Z,41.67
2023-03-04T00:41:28.930Z,44.50
2023-03-04T00:43:55.615Z,43.70
2023-03-04T00:46:22.423Z,42.17
2023-03-04T00:48:49.106Z,41.97
2023-03-04T00:51:15.771Z,47.10
2023-03-04T00:53:42.529Z,44.93
2023-03-04T00:56:09.373Z,41.33
2023-03-04T00:58:36.019Z,44.20
2023-03-04T01:01:02.758Z,40.40
2023-03-04T01:03:31.397Z,39.77
2023-03-04T01:05:58.876Z,44.63
2023-03-04T01:08:26.462Z,47.70
2023-03-04T01:10:53.693Z,41.67
2023-03-04T01:13:20.374Z,47.67
2023-03-04T01:15:47.103Z,45.10
2023-03-04T01:18:13.846Z,46.37
2023-03-04T01:20:41.523Z,38.20
2023-03-04T01:23:08.202Z,42.07
2023-03-04T01:25:35.475Z,43.60
2023-03-04T01:28:02.268Z,44.43
2023-03-04T01:30:28.978Z,48.27
2023-03-04T01:32:56.491Z,50.00
2023-03-04T01:35:23.287Z,54.27
2023-03-04T01:37:50.106Z,45.77
2023-03-04T01:40:17.553Z,44.67
2023-03-04T01:42:45.457Z,44.53
2023-03-04T01:45:17.618Z,44.90
2023-03-04T01:47:48.442Z,53.43
2023-03-04T01:50:32.399Z,45.77
2023-03-04T01:52:59.483Z,49.73
2023-03-04T01:55:28.448Z,47.57
2023-03-04T01:57:57.243Z,49.10
2023-03-04T02:00:33.454Z,45.37
2023-03-04T02:03:12.328Z,51.33
2023-03-04T02:05:43.174Z,52.77
2023-03-04T02:08:11.078Z,50.93
2023-03-04T02:10:38.878Z,50.80
2023-03-04T02:13:06.035Z,48.80
2023-03-04T02:15:33.097Z,49.30
2023-03-04T02:18:01.474Z,48.10
2023-03-04T02:20:37.333Z,48.70
2023-03-04T02:23:11.028Z,50.63
2023-03-04T02:26:12.180Z,46.00
2023-03-04T02:28:39.267Z,48.23
2023-03-04T02:31:06.161Z,54.77
2023-03-04T02:33:33.243Z,48.83
2023-03-04T02:35:59.981Z,47.17
2023-03-04T02:38:26.824Z,45.07
2023-03-04T02:40:54.575Z,47.07
2023-03-04T02:43:21.393Z,51.50
2023-03-04T02:45:50.622Z,54.53
2023-03-04T02:48:20.613Z,52.97
2023-03-04T02:50:49.788Z,49.13
2023-03-04T02:53:17.381Z,49.13
2023-03-04T02:55:44.694Z,48.40
2023-03-04T02:58:13.217Z,47.73
2023-03-04T03:00:40.932Z,51.63
2023-03-04T03:03:08.791Z,53.93
2023-03-04T03:05:37.096Z,50.30
2023-03-04T03:08:04.808Z,43.90
2023-03-04T03:10:32.575Z,49.03
2023-03-04T03:12:59.939Z,50.43
2023-03-04T03:15:26.875Z,52.97
2023-03-04T03:17:55.067Z,56.77
2023-03-04T03:20:21.746Z,52.90
2023-03-04T03:22:48.469Z,46.63
2023-03-04T03:25:16.399Z,50.00
2023-03-04T03:27:43.786Z,52.77
2023-03-04T03:30:14.345Z,46.40
2023-03-04T03:32:41.030Z,50.17
2023-03-04T03:35:08.722Z,51.87
2023-03-04T03:37:35.422Z,58.40
2023-03-04T03:40:02.344Z,55.83
2023-03-04T03:42:29.061Z,53.40
2023-03-04T03:44:56.048Z,50.60
2023-03-04T03:47:22.971Z,53.70
2023-03-04T03:49:49.633Z,47.43
2023-03-04T03:52:16.340Z,51.70
2023-03-04T03:54:43.331Z,47.57
2023-03-04T03:57:09.993Z,52.63
2023-03-04T03:59:36.712Z,47.77
2023-03-04T04:02:03.572Z,52.83
2023-03-04T04:04:30.356Z,49.23
2023-03-04T04:06:57.108Z,51.30
2023-03-04T04:09:23.812Z,51.53
2023-03-04T04:11:50.548Z,55.03
2023-03-04T04:14:17.261Z,54.20
2023-03-04T04:16:44.082Z,49.20
2023-03-04T04:19:17.935Z,51.63
2023-03-04T04:21:45.128Z,52.75
2023-03-04T04:24:12.061Z,54.57
2023-03-04T04:26:38.743Z,50.63
2023-03-04T04:29:06.582Z,50.20
2023-03-04T04:31:33.299Z,52.77
2023-03-04T04:34:01.040Z,52.87
2023-03-04T04:36:28.080Z,51.97
2023-03-04T04:38:54.790Z,54.27
2023-03-04T04:41:22.770Z,54.63
2023-03-04T04:43:49.617Z,51.23
2023-03-04T04:46:16.872Z,51.87
2023-03-04T04:48:43.971Z,49.37
2023-03-04T04:51:10.751Z,52.63
2023-03-04T04:53:37.626Z,49.70
2023-03-04T04:56:16.609Z,46.73
2023-03-04T04:58:44.286Z,50.30
2023-03-04T05:01:11.043Z,57.67
2023-03-04T05:03:38.813Z,50.57
2023-03-04T05:06:07.242Z,51.83
2023-03-04T05:08:34.318Z,57.73
2023-03-04T05:11:01.804Z,50.93
2023-03-04T05:13:28.477Z,48.80
2023-03-04T05:15:56.765Z,47.47
2023-03-04T05:18:26.197Z,48.87
2023-03-04T05:20:58.413Z,52.47
2023-03-04T05:23:26.082Z,49.90
2023-03-04T05:25:52.857Z,50.53
2023-03-04T05:28:20.317Z,50.87
2023-03-04T05:30:47.069Z,51.77
2023-03-04T05:33:15.925Z,51.00
2023-03-04T05:35:43.560Z,52.90
2023-03-04T05:38:12.880Z,58.07
2023-03-04T05:40:40.768Z,54.50
2023-03-04T05:43:08.018Z,54.13
2023-03-04T05:45:34.833Z,51.53
2023-03-04T05:48:03.015Z,52.63
2023-03-04T05:50:30.209Z,50.83
2023-03-04T05:52:57.149Z,51.57
2023-03-04T05:55:24.252Z,52.77
2023-03-04T05:57:50.889Z,55.43
2023-03-04T06:00:17.892Z,59.33
2023-03-04T06:02:45.287Z,48.63
2023-03-04T06:05:14.130Z,55.33
2023-03-04T06:07:43.093Z,54.70
2023-03-04T06:10:11.696Z,58.83
2023-03-04T06:12:38.340Z,58.03
2023-03-04T06:15:06.122Z,59.83
2023-03-04T06:17:33.108Z,51.07
2023-03-04T06:19:59.748Z,57.90
2023-03-04T06:22:26.471Z,53.07
2023-03-04T06:24:53.221Z,54.93
2023-03-04T06:27:20.006Z,57.13
2023-03-04T06:29:46.650Z,54.80
2023-03-04T06:32:13.355Z,56.37
2023-03-04T06:34:40.013Z,52.67
2023-03-04T06:37:06.781Z,51.17
2023-03-04T06:39:33.428Z,53.77
2023-03-04T06:42:00.254Z,53.50
2023-03-04T06:44:26.929Z,56.93
2023-03-04T06:46:53.650Z,60.13
2023-03-04T06:49:20.352Z,56.43
2023-03-04T06:51:47.096Z,56.07
2023-03-04T06:54:13.817Z,51.47
2023-03-04T06:56:40.506Z,53.60
2023-03-04T06:59:07.268Z,56.53
2023-03-04T07:01:35.126Z,55.80
2023-03-04T07:04:02.601Z,56.13
2023-03-04T07:06:30.160Z,52.07
2023-03-04T07:08:57.947Z,63.83
2023-03-04T07:11:25.425Z,67.67
2023-03-04T07:13:52.914Z,65.67
2023-03-04T07:16:21.992Z,66.27
2023-03-04T07:18:48.762Z,62.60
2023-03-04T07:21:16.933Z,57.63
2023-03-04T07:23:43.717Z,65.93
2023-03-04T07:26:10.587Z,67.07
2023-03-04T07:28:37.707Z,59.57
2023-03-04T07:31:25.039Z,67.03
2023-03-04T07:33:52.200Z,66.27
2023-03-04T07:36:19.874Z,62.47
2023-03-04T07:38:48.410Z,61.47
2023-03-04T07:41:16.108Z,61.90
2023-03-04T07:43:43.208Z,56.13
2023-03-04T07:46:10.418Z,63.23
2023-03-04T07:48:37.782Z,58.93
2023-03-04T07:51:16.519Z,58.37
2023-03-04T07:53:45.501Z,58.83
2023-03-04T07:56:15.375Z,60.97
2023-03-04T07:58:42.301Z,53.50
2023-03-04T08:01:18.332Z,59.43
2023-03-04T08:03:45.225Z,54.67
2023-03-04T08:06:15.069Z,54.40
2023-03-04T08:08:43.012Z,53.13
2023-03-04T08:11:19.020Z,57.93
2023-03-04T08:13:46.339Z,59.57
2023-03-04T08:16:17.799Z,61.30
2023-03-04T08:18:48.031Z,60.90
2023-03-04T08:21:16.552Z,60.40
2023-03-04T08:23:43.385Z,61.43
2023-03-04T08:26:13.947Z,61.90
2023-03-04T08:28:41.143Z,62.10
2023-03-04T08:31:08.172Z,62.60
2023-03-04T08:33:35.200Z,54.67
2023-03-04T08:36:01.923Z,61.50
2023-03-04T08:38:28.556Z,59.17
2023-03-04T08:40:56.645Z,60.03
2023-03-04T08:43:24.807Z,59.00
2023-03-04T08:45:53.495Z,61.80
2023-03-04T08:48:20.948Z,57.10
2023-03-04T08:50:48.466Z,62.77
2023-03-04T08:53:15.492Z,62.27
2023-03-04T08:55:43.285Z,58.60
2023-03-04T08:58:10.949Z,55.43
2023-03-04T09:00:39.834Z,60.27
2023-03-04T09:03:06.776Z,59.53
2023-03-04T09:05:33.450Z,59.47
2023-03-04T09:08:00.184Z,58.17
2023-03-04T09:10:26.924Z,58.13
2023-03-04T09:12:54.002Z,60.67
2023-03-04T09:15:20.684Z,59.60
2023-03-04T09:17:47.429Z,56.70
2023-03-04T09:20:14.252Z,61.47
2023-03-04T09:22:42.098Z,62.43
2023-03-04T09:25:13.117Z,59.43
2023-03-04T09:27:40.310Z,55.30
2023-03-04T09:30:08.047Z,61.17
2023-03-04T09:32:34.813Z,54.93
2023-03-04T09:35:01.730Z,56.33
2023-03-04T09:37:28.439Z,52.57
2023-03-04T09:39:55.201Z,57.37
2023-03-04T09:42:37.133Z,60.60
2023-03-04T09:45:06.239Z,60.03
2023-03-04T09:47:36.871Z,57.67
2023-03-04T09:50:08.065Z,51.37
2023-03-04T09:53:07.643Z,55.47
2023-03-04T09:55:39.265Z,51.70
2023-03-04T09:58:33.903Z,58.77
2023-03-04T10:01:17.068Z,53.67
2023-03-04T10:03:56.918Z,59.37
2023-03-04T10:06:24.110Z,63.70
2023-03-04T10:08:56.371Z,65.20
2023-03-04T10:11:39.157Z,60.57
2023-03-04T10:14:32.526Z,69.70
2023-03-04T10:17:23.638Z,59.87
2023-03-04T10:20:04.106Z,56.00
2023-03-04T10:22:40.922Z,54.17
2023-03-04T10:25:32.262Z,63.73
2023-03-04T10:28:29.254Z,54.60
2023-03-04T10:31:11.988Z,71.70
2023-03-04T10:33:40.437Z,75.67
2023-03-04T10:36:29.023Z,64.80
2023-03-04T10:39:00.459Z,68.23
2023-03-04T10:41:29.694Z,53.63
2023-03-04T10:44:02.454Z,56.90
2023-03-04T10:46:30.042Z,62.43
2023-03-04T10:48:57.730Z,53.43
2023-03-04T10:51:27.455Z,60.37
2023-03-04T10:54:03.132Z,58.90
2023-03-04T10:56:42.852Z,51.47
2023-03-04T10:59:38.802Z,50.60
2023-03-04T11:02:20.210Z,45.00
2023-03-04T11:04:56.037Z,49.93
2023-03-04T11:07:27.123Z,36.03
2023-03-04T11:09:55.975Z,37.50
2023-03-04T11:12:33.972Z,40.97
2023-03-04T11:15:02.782Z,37.47
2023-03-04T11:17:43.918Z,31.93
2023-03-04T11:20:34.124Z,28.30
2023-03-04T11:23:05.373Z,30.67
2023-03-04T11:25:43.650Z,33.37
2023-03-04T11:28:13.435Z,32.60
2023-03-04T11:30:57.997Z,33.30
2023-03-04T11:33:42.189Z,36.50
2023-03-04T11:36:23.101Z,32.83
2023-03-04T11:38:51.047Z,40.87
2023-03-04T11:41:31.980Z,33.77
2023-03-04T11:44:00.297Z,34.60
2023-03-04T11:46:36.626Z,35.93
2023-03-04T11:49:24.857Z,39.43
2023-03-04T11:52:13.056Z,34.00
2023-03-04T11:54:46.183Z,42.93
2023-03-04T11:57:33.713Z,43.33
2023-03-04T12:00:26.388Z,37.43
2023-03-04T12:03:20.752Z,44.33
2023-03-04T12:06:00.743Z,42.30
2023-03-04T12:08:45.555Z,34.27
2023-03-04T12:11:48.832Z,40.53
2023-03-04T12:14:22.530Z,45.40
2023-03-04T12:17:10.893Z,39.90
2023-03-04T12:19:56.142Z,38.80
2023-03-04T12:22:29.832Z,36.07
2023-03-04T12:25:19.495Z,34.93
2023-03-04T12:28:03.035Z,35.30
2023-03-04T12:31:07.595Z,37.27
2023-03-04T12:33:55.186Z,37.47
2023-03-04T12:36:31.197Z,35.43
2023-03-04T12:39:17.080Z,35.70
2023-03-04T12:41:48.370Z,39.03
2023-03-04T12:44:20.260Z,32.93
2023-03-04T12:46:58.688Z,34.03
2023-03-04T12:49:55.797Z,35.40
2023-03-04T12:52:44.333Z,33.27
2023-03-04T12:55:15.803Z,37.80
2023-03-04T12:57:42.938Z,33.77
2023-03-04T13:00:38.934Z,34.30
2023-03-04T13:03:21.627Z,36.00
2023-03-04T13:06:05.316Z,27.10
2023-03-04T13:08:43.478Z,26.77
2023-03-04T13:11:29.059Z,27.03
2023-03-04T13:14:26.864Z,23.80
2023-03-04T13:16:55.102Z,25.83
2023-03-04T13:19:57.198Z,23.20
2023-03-04T13:22:39.185Z,31.93
2023-03-04T13:25:47.958Z,22.50
2023-03-04T13:28:20.927Z,39.17
2023-03-04T13:30:57.078Z,29.57
2023-03-04T13:33:23.805Z,28.93
2023-03-04T13:35:59.858Z,28.17
2023-03-04T13:38:29.322Z,24.37
2023-03-04T13:41:05.163Z,32.97
2023-03-04T13:43:49.701Z,24.20
2023-03-04T13:46:19.495Z,26.23
2023-03-04T13:48:52.308Z,24.37
2023-03-04T13:51:29.789Z,29.53
2023-03-04T13:53:59.828Z,29.90
2023-03-04T13:56:37.626Z,24.07
2023-03-04T13:59:44.155Z,21.40
2023-03-04T14:02:22.974Z,20.83
2023-03-04T14:05:00.686Z,23.13
2023-03-04T14:07:29.763Z,22.83
2023-03-04T14:10:04.696Z,21.83
2023-03-04T14:12:37.266Z,28.70
2023-03-04T14:15:23.940Z,20.33
2023-03-04T14:18:03.176Z,20.63
2023-03-04T14:20:34.555Z,23.57
2023-03-04T14:23:03.637Z,18.27
2023-03-04T14:25:33.827Z,21.37
2023-03-04T14:28:14.306Z,25.10
2023-03-04T14:30:44.239Z,21.70
2023-03-04T14:33:18.256Z,20.37
2023-03-04T14:35:51.051Z,47.63
2023-03-04T14:38:34.673Z,26.67
2023-03-04T14:41:04.204Z,17.13
2023-03-04T14:43:39.984Z,21.23
2023-03-04T14:46:12.442Z,18.93
2023-03-04T14:48:40.469Z,17.87
2023-03-04T14:51:27.144Z,18.70
2023-03-04T14:53:56.275Z,17.03
2023-03-04T14:56:30.776Z,16.47
2023-03-04T14:58:58.815Z,14.53
2023-03-04T15:01:36.418Z,16.80
2023-03-04T15:04:04.992Z,13.53
2023-03-04T15:06:34.893Z,16.70
2023-03-04T15:09:07.691Z,16.50
2023-03-04T15:12:01.995Z,17.17
2023-03-04T15:14:46.799Z,33.33
2023-03-04T15:17:41.039Z,15.87
2023-03-04T15:20:07.647Z,15.67
2023-03-04T15:22:35.788Z,16.00
2023-03-04T15:25:02.854Z,14.37
2023-03-04T15:27:30.714Z,16.97
2023-03-04T15:30:00.603Z,14.40
2023-03-04T15:32:28.476Z,15.70
2023-03-04T15:34:55.690Z,13.33
2023-03-04T15:37:27.600Z,13.30
2023-03-04T15:39:56.341Z,12.17
2023-03-04T15:42:23.247Z,15.40
2023-03-04T15:44:49.922Z,16.90
2023-03-04T15:47:16.705Z,17.77
2023-03-04T15:49:47.032Z,17.77
2023-03-04T15:52:18.047Z,18.87
2023-03-04T15:54:45.631Z,20.47
2023-03-04T15:57:26.402Z,14.27
2023-03-04T15:59:53.676Z,14.23
2023-03-04T16:02:27.438Z,13.93
2023-03-04T16:04:54.566Z,13.73
2023-03-04T16:07:25.203Z,14.53
2023-03-04T16:09:56.592Z,13.27
2023-03-04T16:12:24.415Z,11.43
2023-03-04T16:14:51.231Z,9.87
2023-03-04T16:17:18.351Z,12.27
2023-03-04T16:19:45.737Z,14.03
2023-03-04T16:22:17.953Z,12.13
2023-03-04T16:24:44.726Z,16.17
2023-03-04T16:27:16.540Z,16.50
2023-03-04T16:29:43.290Z,17.70
2023-03-04T16:32:10.942Z,13.67
2023-03-04T16:34:37.672Z,15.73
2023-03-04T16:37:12.357Z,12.80
2023-03-04T16:39:41.078Z,12.30
2023-03-04T16:42:14.805Z,13.97
2023-03-04T16:44:41.492Z,13.67
2023-03-04T16:47:08.255Z,14.13
2023-03-04T16:49:34.900Z,14.57
2023-03-04T16:52:01.699Z,14.83
2023-03-04T16:54:31.106Z,13.33
2023-03-04T16:56:58.961Z,10.60
2023-03-04T16:59:26.374Z,15.30
2023-03-04T17:01:53.893Z,13.70
2023-03-04T17:04:21.752Z,16.90
2023-03-04T17:06:48.549Z,14.17
2023-03-04T17:09:15.212Z,13.87
2023-03-04T17:11:41.958Z,18.60
2023-03-04T17:14:08.611Z,15.27
2023-03-04T17:16:36.065Z,17.50
2023-03-04T17:19:02.765Z,14.27
2023-03-04T17:21:29.486Z,19.27
2023-03-04T17:23:56.132Z,18.63
2023-03-04T17:26:22.953Z,14.10
2023-03-04T17:28:50.920Z,18.30
2023-03-04T17:31:20.023Z,17.27
2023-03-04T17:33:47.287Z,19.27
2023-03-04T17:36:15.817Z,17.57
2023-03-04T17:38:43.233Z,20.80
2023-03-04T17:41:17.376Z,21.83
2023-03-04T17:43:46.374Z,20.10
2023-03-04T17:46:14.856Z,16.60
2023-03-04T17:48:41.961Z,19.20
2023-03-04T17:51:09.404Z,16.57
2023-03-04T17:53:36.385Z,15.27
2023-03-04T17:56:05.836Z,22.17
2023-03-04T17:58:35.390Z,14.30
2023-03-04T18:01:19.933Z,16.53
2023-03-04T18:03:47.236Z,14.77
2023-03-04T18:06:14.029Z,16.03
2023-03-04T18:08:40.714Z,14.60
2023-03-04T18:11:07.338Z,14.40
2023-03-04T18:13:34.017Z,13.37
2023-03-04T18:16:00.694Z,13.20
2023-03-04T18:18:27.416Z,16.80
2023-03-04T18:20:59.043Z,11.60
2023-03-04T18:23:26.653Z,15.70
2023-03-04T18:25:53.296Z,15.97
2023-03-04T18:28:19.984Z,17.67
2023-03-04T18:30:46.780Z,13.67
2023-03-04T18:33:13.550Z,15.13
2023-03-04T18:35:40.276Z,17.00
2023-03-04T18:38:07.016Z,19.80
2023-03-04T18:40:33.738Z,29.07
2023-03-04T18:43:00.492Z,27.20
2023-03-04T18:45:27.651Z,25.37
2023-03-04T18:47:54.667Z,18.67
2023-03-04T18:50:24.061Z,13.03
2023-03-04T18:52:52.698Z,14.37
2023-03-04T18:55:20.669Z,13.67
2023-03-04T18:57:52.201Z,16.17
2023-03-04T19:00:21.584Z,17.73
2023-03-04T19:02:52.174Z,18.60
2023-03-04T19:05:26.709Z,16.30
2023-03-04T19:07:54.178Z,14.47
2023-03-04T19:10:20.945Z,20.10
2023-03-04T19:12:47.977Z,17.10
2023-03-04T19:15:15.098Z,15.17
2023-03-04T19:17:45.127Z,16.17
2023-03-04T19:20:13.252Z,17.43
2023-03-04T19:22:39.981Z,18.33
2023-03-04T19:25:07.260Z,19.50
2023-03-04T19:27:33.926Z,17.60
2023-03-04T19:30:01.370Z,19.53
2023-03-04T19:32:28.196Z,17.23
2023-03-04T19:34:54.849Z,15.80
2023-03-04T19:37:21.526Z,14.80
2023-03-04T19:39:49.193Z,16.40
2023-03-04T19:42:16.200Z,18.20
2023-03-04T19:44:44.867Z,18.63
2023-03-04T19:47:11.877Z,16.47
2023-03-04T19:49:38.713Z,19.07
2023-03-04T19:52:05.635Z,23.53
2023-03-04T19:54:33.157Z,21.27
2023-03-04T19:56:59.890Z,19.07
2023-03-04T19:59:26.552Z,21.37
2023-03-04T20:01:54.107Z,19.90
2023-03-04T20:04:21.430Z,22.60
2023-03-04T20:06:50.111Z,21.50
2023-03-04T20:09:18.223Z,21.57
2023-03-04T20:11:57.721Z,25.03
2023-03-04T20:14:30.098Z,20.37
2023-03-04T20:17:04.549Z,21.20
2023-03-04T20:19:32.048Z,15.87
2023-03-04T20:21:58.736Z,16.23
2023-03-04T20:24:26.290Z,18.93
2023-03-04T20:26:53.396Z,21.00
2023-03-04T20:29:20.135Z,19.97
2023-03-04T20:31:46.891Z,19.67
2023-03-04T20:34:13.890Z,18.17
2023-03-04T20:36:40.617Z,20.07
2023-03-04T20:39:25.742Z,19.57
2023-03-04T20:41:54.230Z,19.87
2023-03-04T20:44:20.915Z,29.77
2023-03-04T20:46:47.571Z,24.07
2023-03-04T20:49:22.114Z,24.03
2023-03-04T20:51:50.640Z,20.50
2023-03-04T20:54:17.474Z,20.20
2023-03-04T20:56:44.248Z,20.77
2023-03-04T20:59:12.325Z,21.80
2023-03-04T21:01:41.477Z,21.87
2023-03-04T21:04:08.376Z,19.07
2023-03-04T21:06:36.168Z,23.43
2023-03-04T21:09:05.944Z,24.83
2023-03-04T21:11:39.910Z,19.90
2023-03-04T21:14:21.969Z,19.63
2023-03-04T21:16:51.046Z,26.10
2023-03-04T21:19:25.536Z,17.67
2023-03-04T21:21:52.246Z,16.90
2023-03-04T21:24:21.883Z,22.27
2023-03-04T21:26:48.959Z,21.87
2023-03-04T21:29:17.889Z,20.03
2023-03-04T21:31:47.473Z,22.97
2023-03-04T21:34:21.471Z,21.53
2023-03-04T21:36:48.306Z,28.90
2023-03-04T21:39:20.794Z,33.17
2023-03-04T21:41:47.730Z,23.83
2023-03-04T21:44:28.097Z,25.27
2023-03-04T21:47:01.024Z,26.93
2023-03-04T21:49:28.232Z,26.17
2023-03-04T21:51:55.202Z,25.50
2023-03-04T21:54:22.114Z,22.13
2023-03-04T21:56:50.126Z,26.30
2023-03-04T21:59:20.173Z,24.13
2023-03-04T22:01:46.990Z,19.13
2023-03-04T22:04:13.806Z,18.80
2023-03-04T22:06:41.467Z,25.83
2023-03-04T22:09:08.600Z,15.10
2023-03-04T22:11:35.356Z,19.27
2023-03-04T22:14:03.310Z,17.57
2023-03-04T22:16:35.376Z,18.93
2023-03-04T22:19:04.459Z,25.53
2023-03-04T22:21:31.168Z,20.97
2023-03-04T22:23:57.854Z,18.70
2023-03-04T22:26:31.471Z,20.67
2023-03-04T22:29:00.329Z,17.73
2023-03-04T22:31:30.468Z,15.50
2023-03-04T22:34:02.877Z,19.87
2023-03-04T22:36:30.899Z,17.47
2023-03-04T22:38:57.846Z,20.23
2023-03-04T22:41:24.965Z,18.63
2023-03-04T22:43:51.673Z,19.60
2023-03-04T22:46:24.845Z,18.63
2023-03-04T22:48:53.200Z,23.17
2023-03-04T22:51:20.682Z,17.80
2023-03-04T22:53:48.611Z,21.70
2023-03-04T22:56:15.580Z,18.50
2023-03-04T22:58:44.423Z,21.23
2023-03-04T23:01:13.345Z,16.07
2023-03-04T23:03:41.616Z,18.30
2023-03-04T23:06:11.969Z,19.37
2023-03-04T23:08:40.586Z,16.53
2023-03-04T23:11:13.247Z,16.17
2023-03-04T23:13:40.719Z,19.33
2023-03-04T23:16:09.664Z,16.80
2023-03-04T23:18:37.720Z,19.03
2023-03-04T23:21:13.149Z,22.60
2023-03-04T23:23:41.114Z,25.13
2023-03-04T23:26:28.028Z,23.97
2023-03-04T23:28:56.856Z,22.37
2023-03-04T23:31:23.888Z,21.47
2023-03-04T23:33:50.741Z,23.63
2023-03-04T23:36:19.121Z,20.73
2023-03-04T23:38:49.045Z,19.07
2023-03-04T23:41:27.955Z,21.07
2023-03-04T23:43:56.118Z,19.73
2023-03-04T23:46:23.779Z,18.17
2023-03-04T23:48:52.050Z,23.00
2023-03-04T23:51:22.374Z,22.30
2023-03-04T23:53:49.119Z,21.83
2023-03-04T23:56:18.931Z,20.13
2023-03-04T23:58:46.158Z,21.73
